sensor_id;sensor_type;location;lat;lon;timestamp;temperature;humidity
52016;DHT22;38032;53.326;6.472;2022-12-20T00:02:12;10.40;99.90
52016;DHT22;38032;53.326;6.472;2022-12-20T00:04:38;10.40;99.90
52016;DHT22;38032;53.326;6.472;2022-12-20T00:07:03;10.30;99.90
52016;DHT22;38032;53.326;6.472;2022-12-20T00:09:29;10.30;99.90
52016;DHT22;38032;53.326;6.472;2022-12-20T00:11:55;10.30;99.90
52016;DHT22;38032;53.326;6.472;2022-12-20T00:14:21;10.40;99.90
52016;DHT22;38032;53.326;6.472;2022-12-20T00:16:47;10.40;99.90
52016;DHT22;38032;53.326;6.472;2022-12-20T00:19:13;10.40;99.90
52016;DHT22;38032;53.326;6.472;2022-12-20T00:21:39;10.40;99.90
52016;DHT22;38032;53.326;6.472;2022-12-20T00:24:05;10.40;99.90
52016;DHT22;38032;53.326;6.472;2022-12-20T00:26:32;10.40;99.90
52016;DHT22;38032;53.326;6.472;2022-12-20T00:28:59;10.40;99.90
52016;DHT22;38032;53.326;6.472;2022-12-20T00:31:27;10.30;99.90
52016;DHT22;38032;53.326;6.472;2022-12-20T00:33:54;10.40;99.90
52016;DHT22;38032;53.326;6.472;2022-12-20T00:36:22;10.30;99.90
52016;DHT22;38032;53.326;6.472;2022-12-20T00:38:50;10.30;99.90
52016;DHT22;38032;53.326;6.472;2022-12-20T00:41:21;10.30;99.90
52016;DHT22;38032;53.326;6.472;2022-12-20T00:43:48;10.30;99.90
52016;DHT22;38032;53.326;6.472;2022-12-20T00:46:15;10.40;99.90
52016;DHT22;38032;53.326;6.472;2022-12-20T00:48:41;10.40;99.90
52016;DHT22;38032;53.326;6.472;2022-12-20T00:51:10;10.40;99.90
52016;DHT22;38032;53.326;6.472;2022-12-20T00:53:37;10.40;99.90
52016;DHT22;38032;53.326;6.472;2022-12-20T00:56:04;10.50;99.90
52016;DHT22;38032;53.326;6.472;2022-12-20T00:58:32;10.50;99.90
52016;DHT22;38032;53.326;6.472;2022-12-20T01:00:58;10.50;99.90
52016;DHT22;38032;53.326;6.472;2022-12-20T01:03:24;10.50;99.90
52016;DHT22;38032;53.326;6.472;2022-12-20T01:05:53;10.50;99.90
52016;DHT22;38032;53.326;6.472;2022-12-20T01:08:21;10.40;99.90
52016;DHT22;38032;53.326;6.472;2022-12-20T01:11:04;10.40;99.90
52016;DHT22;38032;53.326;6.472;2022-12-20T01:13:32;10.40;99.90
52016;DHT22;38032;53.326;6.472;2022-12-20T01:16:05;10.40;99.90
52016;DHT22;38032;53.326;6.472;2022-12-20T01:18:31;10.40;99.90
52016;DHT22;38032;53.326;6.472;2022-12-20T01:21:03;10.40;99.90
52016;DHT22;38032;53.326;6.472;2022-12-20T01:23:29;10.40;99.90
52016;DHT22;38032;53.326;6.472;2022-12-20T01:25:57;10.40;99.90
52016;DHT22;38032;53.326;6.472;2022-12-20T01:28:23;10.40;99.90
52016;DHT22;38032;53.326;6.472;2022-12-20T01:30:49;10.40;99.90
52016;DHT22;38032;53.326;6.472;2022-12-20T01:33:15;10.40;99.90
52016;DHT22;38032;53.326;6.472;2022-12-20T01:35:41;10.40;99.90
52016;DHT22;38032;53.326;6.472;2022-12-20T01:38:07;10.40;99.90
52016;DHT22;38032;53.326;6.472;2022-12-20T01:40:33;10.30;99.90
52016;DHT22;38032;53.326;6.472;2022-12-20T01:42:58;10.40;99.90
52016;DHT22;38032;53.326;6.472;2022-12-20T01:45:29;10.40;99.90
52016;DHT22;38032;53.326;6.472;2022-12-20T01:47:56;10.40;99.90
52016;DHT22;38032;53.326;6.472;2022-12-20T01:50:23;10.40;99.90
52016;DHT22;38032;53.326;6.472;2022-12-20T01:52:51;10.40;99.90
52016;DHT22;38032;53.326;6.472;2022-12-20T01:55:20;10.40;99.90
52016;DHT22;38032;53.326;6.472;2022-12-20T01:57:58;10.40;99.90
52016;DHT22;38032;53.326;6.472;2022-12-20T02:00:26;10.40;99.90
52016;DHT22;38032;53.326;6.472;2022-12-20T02:02:53;10.40;99.90
52016;DHT22;38032;53.326;6.472;2022-12-20T02:05:21;10.40;99.90
52016;DHT22;38032;53.326;6.472;2022-12-20T02:07:50;10.40;99.90
52016;DHT22;38032;53.326;6.472;2022-12-20T02:10:18;10.30;99.90
52016;DHT22;38032;53.326;6.472;2022-12-20T02:12:46;10.30;99.90
52016;DHT22;38032;53.326;6.472;2022-12-20T02:15:34;10.30;99.90
52016;DHT22;38032;53.326;6.472;2022-12-20T02:23:54;10.30;99.90
52016;DHT22;38032;53.326;6.472;2022-12-20T02:26:44;10.30;99.90
52016;DHT22;38032;53.326;6.472;2022-12-20T02:29:32;10.30;99.90
52016;DHT22;38032;53.326;6.472;2022-12-20T02:32:07;10.30;99.90
52016;DHT22;38032;53.326;6.472;2022-12-20T02:34:35;10.30;99.90
52016;DHT22;38032;53.326;6.472;2022-12-20T02:37:02;10.30;99.90
52016;DHT22;38032;53.326;6.472;2022-12-20T02:39:30;10.30;99.90
52016;DHT22;38032;53.326;6.472;2022-12-20T02:42:03;10.20;99.90
52016;DHT22;38032;53.326;6.472;2022-12-20T02:44:32;10.20;99.90
52016;DHT22;38032;53.326;6.472;2022-12-20T02:47:25;10.30;99.90
52016;DHT22;38032;53.326;6.472;2022-12-20T02:49:53;10.20;99.90
52016;DHT22;38032;53.326;6.472;2022-12-20T02:52:22;10.20;99.90
52016;DHT22;38032;53.326;6.472;2022-12-20T02:54:53;10.20;99.90
52016;DHT22;38032;53.326;6.472;2022-12-20T02:57:25;10.20;99.90
52016;DHT22;38032;53.326;6.472;2022-12-20T03:00:04;10.20;99.90
52016;DHT22;38032;53.326;6.472;2022-12-20T03:02:31;10.20;99.90
52016;DHT22;38032;53.326;6.472;2022-12-20T03:05:20;10.20;99.90
52016;DHT22;38032;53.326;6.472;2022-12-20T03:07:46;10.20;99.90
52016;DHT22;38032;53.326;6.472;2022-12-20T03:10:12;10.20;99.90
52016;DHT22;38032;53.326;6.472;2022-12-20T03:12:38;10.10;99.90
52016;DHT22;38032;53.326;6.472;2022-12-20T03:15:05;10.10;99.90
52016;DHT22;38032;53.326;6.472;2022-12-20T03:17:31;10.10;99.90
52016;DHT22;38032;53.326;6.472;2022-12-20T03:19:57;10.10;99.90
52016;DHT22;38032;53.326;6.472;2022-12-20T03:22:22;10.10;99.90
52016;DHT22;38032;53.326;6.472;2022-12-20T03:24:49;10.10;99.90
52016;DHT22;38032;53.326;6.472;2022-12-20T03:27:15;10.10;99.90
52016;DHT22;38032;53.326;6.472;2022-12-20T03:29:41;10.00;99.90
52016;DHT22;38032;53.326;6.472;2022-12-20T03:32:07;10.00;99.90
52016;DHT22;38032;53.326;6.472;2022-12-20T03:34:33;10.00;99.90
52016;DHT22;38032;53.326;6.472;2022-12-20T03:36:59;10.00;99.90
52016;DHT22;38032;53.326;6.472;2022-12-20T03:39:24;10.10;99.90
52016;DHT22;38032;53.326;6.472;2022-12-20T03:41:50;10.10;99.90
52016;DHT22;38032;53.326;6.472;2022-12-20T03:44:16;10.10;99.90
52016;DHT22;38032;53.326;6.472;2022-12-20T03:46:42;10.10;99.90
52016;DHT22;38032;53.326;6.472;2022-12-20T03:49:08;10.10;99.90
52016;DHT22;38032;53.326;6.472;2022-12-20T03:51:34;10.10;99.90
52016;DHT22;38032;53.326;6.472;2022-12-20T03:54:00;10.10;99.90
52016;DHT22;38032;53.326;6.472;2022-12-20T03:56:25;10.10;99.90
52016;DHT22;38032;53.326;6.472;2022-12-20T03:58:51;10.10;99.90
52016;DHT22;38032;53.326;6.472;2022-12-20T04:01:25;10.10;99.90
52016;DHT22;38032;53.326;6.472;2022-12-20T04:03:52;10.10;99.90
52016;DHT22;38032;53.326;6.472;2022-12-20T04:06:19;10.10;99.90
52016;DHT22;38032;53.326;6.472;2022-12-20T04:08:45;10.10;99.90
52016;DHT22;38032;53.326;6.472;2022-12-20T04:11:11;10.10;99.90
52016;DHT22;38032;53.326;6.472;2022-12-20T04:13:45;10.10;99.90
52016;DHT22;38032;53.326;6.472;2022-12-20T04:16:14;10.10;99.90
52016;DHT22;38032;53.326;6.472;2022-12-20T04:18:40;10.10;99.90
52016;DHT22;38032;53.326;6.472;2022-12-20T04:21:07;10.10;99.90
52016;DHT22;38032;53.326;6.472;2022-12-20T04:23:34;10.10;99.90
52016;DHT22;38032;53.326;6.472;2022-12-20T04:26:01;10.10;99.90
52016;DHT22;38032;53.326;6.472;2022-12-20T04:28:28;10.20;99.90
52016;DHT22;38032;53.326;6.472;2022-12-20T04:30:54;10.10;99.90
52016;DHT22;38032;53.326;6.472;2022-12-20T04:33:20;10.10;99.90
52016;DHT22;38032;53.326;6.472;2022-12-20T04:35:46;10.10;99.90
52016;DHT22;38032;53.326;6.472;2022-12-20T04:38:12;10.10;99.90
52016;DHT22;38032;53.326;6.472;2022-12-20T04:40:38;10.20;99.90
52016;DHT22;38032;53.326;6.472;2022-12-20T04:43:04;10.20;99.90
52016;DHT22;38032;53.326;6.472;2022-12-20T04:45:30;10.20;99.90
52016;DHT22;38032;53.326;6.472;2022-12-20T04:47:56;10.20;99.90
52016;DHT22;38032;53.326;6.472;2022-12-20T04:50:22;10.30;99.90
52016;DHT22;38032;53.326;6.472;2022-12-20T04:52:47;10.30;99.90
52016;DHT22;38032;53.326;6.472;2022-12-20T04:55:36;10.30;99.90
52016;DHT22;38032;53.326;6.472;2022-12-20T04:58:02;10.30;99.90
52016;DHT22;38032;53.326;6.472;2022-12-20T05:00:28;10.30;99.90
52016;DHT22;38032;53.326;6.472;2022-12-20T05:02:54;10.40;99.90
52016;DHT22;38032;53.326;6.472;2022-12-20T05:05:20;10.40;99.90
52016;DHT22;38032;53.326;6.472;2022-12-20T05:07:46;10.40;99.90
52016;DHT22;38032;53.326;6.472;2022-12-20T05:10:12;10.40;99.90
52016;DHT22;38032;53.326;6.472;2022-12-20T05:12:38;10.40;99.90
52016;DHT22;38032;53.326;6.472;2022-12-20T05:15:04;10.40;99.90
52016;DHT22;38032;53.326;6.472;2022-12-20T05:17:30;10.40;99.90
52016;DHT22;38032;53.326;6.472;2022-12-20T05:19:56;10.40;99.90
52016;DHT22;38032;53.326;6.472;2022-12-20T05:22:21;10.40;99.90
52016;DHT22;38032;53.326;6.472;2022-12-20T05:25:06;10.50;99.90
52016;DHT22;38032;53.326;6.472;2022-12-20T05:27:50;10.50;99.90
52016;DHT22;38032;53.326;6.472;2022-12-20T05:30:16;10.50;99.90
52016;DHT22;38032;53.326;6.472;2022-12-20T05:32:42;10.50;99.90
52016;DHT22;38032;53.326;6.472;2022-12-20T05:35:08;10.50;99.90
52016;DHT22;38032;53.326;6.472;2022-12-20T05:37:34;10.50;99.90
52016;DHT22;38032;53.326;6.472;2022-12-20T05:40:00;10.50;99.90
52016;DHT22;38032;53.326;6.472;2022-12-20T05:42:26;10.50;99.90
52016;DHT22;38032;53.326;6.472;2022-12-20T05:44:51;10.60;99.90
52016;DHT22;38032;53.326;6.472;2022-12-20T05:47:17;10.60;99.90
52016;DHT22;38032;53.326;6.472;2022-12-20T05:49:43;10.60;99.90
52016;DHT22;38032;53.326;6.472;2022-12-20T05:52:09;10.60;99.90
52016;DHT22;38032;53.326;6.472;2022-12-20T05:54:35;10.60;99.90
52016;DHT22;38032;53.326;6.472;2022-12-20T05:57:01;10.60;99.90
52016;DHT22;38032;53.326;6.472;2022-12-20T05:59:27;10.60;99.90
52016;DHT22;38032;53.326;6.472;2022-12-20T06:01:53;10.60;99.90
52016;DHT22;38032;53.326;6.472;2022-12-20T06:04:19;10.60;99.90
52016;DHT22;38032;53.326;6.472;2022-12-20T06:06:45;10.70;99.90
52016;DHT22;38032;53.326;6.472;2022-12-20T06:09:11;10.70;99.90
52016;DHT22;38032;53.326;6.472;2022-12-20T06:11:37;10.70;99.90
52016;DHT22;38032;53.326;6.472;2022-12-20T06:14:03;10.70;99.90
52016;DHT22;38032;53.326;6.472;2022-12-20T06:16:29;10.70;99.90
52016;DHT22;38032;53.326;6.472;2022-12-20T06:18:55;10.70;99.90
52016;DHT22;38032;53.326;6.472;2022-12-20T06:21:22;10.70;99.90
52016;DHT22;38032;53.326;6.472;2022-12-20T06:23:48;10.70;99.90
52016;DHT22;38032;53.326;6.472;2022-12-20T06:26:14;10.70;99.90
52016;DHT22;38032;53.326;6.472;2022-12-20T06:28:40;10.70;99.90
52016;DHT22;38032;53.326;6.472;2022-12-20T06:31:09;10.70;99.90
52016;DHT22;38032;53.326;6.472;2022-12-20T06:33:36;10.80;99.90
52016;DHT22;38032;53.326;6.472;2022-12-20T06:36:02;10.70;99.90
52016;DHT22;38032;53.326;6.472;2022-12-20T06:38:28;10.70;99.90
52016;DHT22;38032;53.326;6.472;2022-12-20T06:40:54;10.70;99.90
52016;DHT22;38032;53.326;6.472;2022-12-20T06:43:20;10.80;99.90
52016;DHT22;38032;53.326;6.472;2022-12-20T06:45:46;10.80;99.90
52016;DHT22;38032;53.326;6.472;2022-12-20T06:48:12;10.80;99.90
52016;DHT22;38032;53.326;6.472;2022-12-20T06:50:38;10.70;99.90
52016;DHT22;38032;53.326;6.472;2022-12-20T06:53:04;10.80;99.90
52016;DHT22;38032;53.326;6.472;2022-12-20T06:55:30;10.80;99.90
52016;DHT22;38032;53.326;6.472;2022-12-20T06:57:56;10.80;99.90
52016;DHT22;38032;53.326;6.472;2022-12-20T07:00:22;10.80;99.90
52016;DHT22;38032;53.326;6.472;2022-12-20T07:02:48;10.80;99.90
52016;DHT22;38032;53.326;6.472;2022-12-20T07:05:14;10.80;99.90
52016;DHT22;38032;53.326;6.472;2022-12-20T07:07:40;10.80;99.90
52016;DHT22;38032;53.326;6.472;2022-12-20T07:10:06;10.80;99.90
52016;DHT22;38032;53.326;6.472;2022-12-20T07:12:33;10.80;99.90
52016;DHT22;38032;53.326;6.472;2022-12-20T07:14:59;10.90;99.90
52016;DHT22;38032;53.326;6.472;2022-12-20T07:17:25;10.90;99.90
52016;DHT22;38032;53.326;6.472;2022-12-20T07:19:51;10.90;99.90
52016;DHT22;38032;53.326;6.472;2022-12-20T07:22:17;10.80;99.90
52016;DHT22;38032;53.326;6.472;2022-12-20T07:24:42;10.90;99.90
52016;DHT22;38032;53.326;6.472;2022-12-20T07:27:10;10.80;99.90
52016;DHT22;38032;53.326;6.472;2022-12-20T07:29:36;10.90;99.90
52016;DHT22;38032;53.326;6.472;2022-12-20T07:32:05;10.80;99.90
52016;DHT22;38032;53.326;6.472;2022-12-20T07:34:31;10.80;99.90
52016;DHT22;38032;53.326;6.472;2022-12-20T07:36:57;10.80;99.90
52016;DHT22;38032;53.326;6.472;2022-12-20T07:39:23;10.80;99.90
52016;DHT22;38032;53.326;6.472;2022-12-20T07:41:53;10.80;99.90
52016;DHT22;38032;53.326;6.472;2022-12-20T07:44:20;10.80;99.90
52016;DHT22;38032;53.326;6.472;2022-12-20T07:46:46;10.80;99.90
52016;DHT22;38032;53.326;6.472;2022-12-20T07:49:12;10.80;99.90
52016;DHT22;38032;53.326;6.472;2022-12-20T07:51:44;10.70;99.90
52016;DHT22;38032;53.326;6.472;2022-12-20T07:54:15;10.70;99.90
52016;DHT22;38032;53.326;6.472;2022-12-20T07:56:48;10.80;99.90
52016;DHT22;38032;53.326;6.472;2022-12-20T07:59:18;10.80;99.90
52016;DHT22;38032;53.326;6.472;2022-12-20T08:01:45;10.70;99.90
52016;DHT22;38032;53.326;6.472;2022-12-20T08:04:14;10.80;99.90
52016;DHT22;38032;53.326;6.472;2022-12-20T08:06:41;10.70;99.90
52016;DHT22;38032;53.326;6.472;2022-12-20T08:09:10;10.80;99.90
52016;DHT22;38032;53.326;6.472;2022-12-20T08:11:39;10.80;99.90
52016;DHT22;38032;53.326;6.472;2022-12-20T08:14:06;10.70;99.90
52016;DHT22;38032;53.326;6.472;2022-12-20T08:16:33;10.80;99.90
52016;DHT22;38032;53.326;6.472;2022-12-20T08:18:59;10.80;99.90
52016;DHT22;38032;53.326;6.472;2022-12-20T08:21:25;10.80;99.90
52016;DHT22;38032;53.326;6.472;2022-12-20T08:23:51;10.80;99.90
52016;DHT22;38032;53.326;6.472;2022-12-20T08:26:17;10.70;99.90
52016;DHT22;38032;53.326;6.472;2022-12-20T08:28:43;10.80;99.90
52016;DHT22;38032;53.326;6.472;2022-12-20T08:31:10;10.80;99.90
52016;DHT22;38032;53.326;6.472;2022-12-20T08:33:37;10.80;99.90
52016;DHT22;38032;53.326;6.472;2022-12-20T08:36:07;10.80;99.90
52016;DHT22;38032;53.326;6.472;2022-12-20T08:38:34;10.90;99.90
52016;DHT22;38032;53.326;6.472;2022-12-20T08:41:02;10.90;99.90
52016;DHT22;38032;53.326;6.472;2022-12-20T08:43:30;10.90;99.90
52016;DHT22;38032;53.326;6.472;2022-12-20T08:45:56;10.90;99.90
52016;DHT22;38032;53.326;6.472;2022-12-20T08:48:22;10.90;99.90
52016;DHT22;38032;53.326;6.472;2022-12-20T08:50:54;10.90;99.90
52016;DHT22;38032;53.326;6.472;2022-12-20T08:53:20;11.00;99.90
52016;DHT22;38032;53.326;6.472;2022-12-20T08:55:46;11.00;99.90
52016;DHT22;38032;53.326;6.472;2022-12-20T08:58:12;10.90;99.90
52016;DHT22;38032;53.326;6.472;2022-12-20T09:00:38;11.00;99.90
52016;DHT22;38032;53.326;6.472;2022-12-20T09:03:04;11.00;99.90
52016;DHT22;38032;53.326;6.472;2022-12-20T09:05:31;11.00;99.90
52016;DHT22;38032;53.326;6.472;2022-12-20T09:07:58;11.00;99.90
52016;DHT22;38032;53.326;6.472;2022-12-20T09:10:24;11.00;99.90
52016;DHT22;38032;53.326;6.472;2022-12-20T09:12:50;11.10;99.90
52016;DHT22;38032;53.326;6.472;2022-12-20T09:15:16;11.00;99.90
52016;DHT22;38032;53.326;6.472;2022-12-20T09:17:42;11.10;99.90
52016;DHT22;38032;53.326;6.472;2022-12-20T09:20:08;11.10;99.90
52016;DHT22;38032;53.326;6.472;2022-12-20T09:22:34;11.10;99.90
52016;DHT22;38032;53.326;6.472;2022-12-20T09:25:00;11.20;99.90
52016;DHT22;38032;53.326;6.472;2022-12-20T09:27:26;11.20;99.90
52016;DHT22;38032;53.326;6.472;2022-12-20T09:29:52;11.20;99.90
52016;DHT22;38032;53.326;6.472;2022-12-20T09:32:18;11.30;99.90
52016;DHT22;38032;53.326;6.472;2022-12-20T09:34:44;11.20;99.90
52016;DHT22;38032;53.326;6.472;2022-12-20T09:37:09;11.30;99.90
52016;DHT22;38032;53.326;6.472;2022-12-20T09:39:35;11.30;99.90
52016;DHT22;38032;53.326;6.472;2022-12-20T09:42:06;11.30;99.90
52016;DHT22;38032;53.326;6.472;2022-12-20T09:44:37;11.40;99.90
52016;DHT22;38032;53.326;6.472;2022-12-20T09:47:17;11.30;99.90
52016;DHT22;38032;53.326;6.472;2022-12-20T09:49:48;11.40;99.90
52016;DHT22;38032;53.326;6.472;2022-12-20T09:52:28;11.40;99.90
52016;DHT22;38032;53.326;6.472;2022-12-20T09:55:01;11.50;99.90
52016;DHT22;38032;53.326;6.472;2022-12-20T09:57:43;11.50;99.90
52016;DHT22;38032;53.326;6.472;2022-12-20T10:00:14;11.50;99.90
52016;DHT22;38032;53.326;6.472;2022-12-20T10:02:40;11.60;99.90
52016;DHT22;38032;53.326;6.472;2022-12-20T10:05:15;11.60;99.90
52016;DHT22;38032;53.326;6.472;2022-12-20T10:07:54;11.60;99.90
52016;DHT22;38032;53.326;6.472;2022-12-20T10:15:42;11.60;99.90
52016;DHT22;38032;53.326;6.472;2022-12-20T10:20:56;11.70;99.90
52016;DHT22;38032;53.326;6.472;2022-12-20T10:23:41;11.70;99.90
52016;DHT22;38032;53.326;6.472;2022-12-20T10:26:11;11.80;99.90
52016;DHT22;38032;53.326;6.472;2022-12-20T10:28:37;11.80;99.90
52016;DHT22;38032;53.326;6.472;2022-12-20T10:31:10;11.80;99.90
52016;DHT22;38032;53.326;6.472;2022-12-20T10:33:38;11.80;99.90
52016;DHT22;38032;53.326;6.472;2022-12-20T10:38:45;11.90;99.90
52016;DHT22;38032;53.326;6.472;2022-12-20T10:41:16;11.90;99.90
52016;DHT22;38032;53.326;6.472;2022-12-20T10:43:45;11.90;99.90
52016;DHT22;38032;53.326;6.472;2022-12-20T10:46:13;11.90;99.90
52016;DHT22;38032;53.326;6.472;2022-12-20T10:48:43;11.90;99.90
52016;DHT22;38032;53.326;6.472;2022-12-20T10:56:25;12.00;99.90
52016;DHT22;38032;53.326;6.472;2022-12-20T10:58:55;12.00;99.90
52016;DHT22;38032;53.326;6.472;2022-12-20T11:01:24;11.90;99.90
52016;DHT22;38032;53.326;6.472;2022-12-20T11:04:06;12.00;99.90
52016;DHT22;38032;53.326;6.472;2022-12-20T11:09:31;12.00;99.90
52016;DHT22;38032;53.326;6.472;2022-12-20T11:12:15;12.00;99.90
52016;DHT22;38032;53.326;6.472;2022-12-20T11:14:43;12.00;99.90
52016;DHT22;38032;53.326;6.472;2022-12-20T11:27:48;12.00;99.90
52016;DHT22;38032;53.326;6.472;2022-12-20T11:33:00;12.00;99.90
52016;DHT22;38032;53.326;6.472;2022-12-20T11:35:45;12.00;99.90
52016;DHT22;38032;53.326;6.472;2022-12-20T11:38:24;12.00;99.90
52016;DHT22;38032;53.326;6.472;2022-12-20T11:41:18;12.00;99.90
52016;DHT22;38032;53.326;6.472;2022-12-20T11:51:48;12.00;99.90
52016;DHT22;38032;53.326;6.472;2022-12-20T11:54:25;12.00;99.90
52016;DHT22;38032;53.326;6.472;2022-12-20T11:56:56;11.90;99.90
52016;DHT22;38032;53.326;6.472;2022-12-20T11:59:39;12.00;99.90
52016;DHT22;38032;53.326;6.472;2022-12-20T12:04:53;11.90;99.90
52016;DHT22;38032;53.326;6.472;2022-12-20T12:07:26;12.00;99.90
52016;DHT22;38032;53.326;6.472;2022-12-20T12:10:00;12.00;99.90
52016;DHT22;38032;53.326;6.472;2022-12-20T12:12:30;12.00;99.90
52016;DHT22;38032;53.326;6.472;2022-12-20T12:17:38;12.00;99.90
52016;DHT22;38032;53.326;6.472;2022-12-20T12:23:23;11.90;99.90
52016;DHT22;38032;53.326;6.472;2022-12-20T12:25:51;11.90;99.90
52016;DHT22;38032;53.326;6.472;2022-12-20T12:28:19;11.90;99.90
52016;DHT22;38032;53.326;6.472;2022-12-20T12:30:54;11.90;99.90
52016;DHT22;38032;53.326;6.472;2022-12-20T12:33:30;11.90;99.90
52016;DHT22;38032;53.326;6.472;2022-12-20T12:39:07;11.90;99.90
52016;DHT22;38032;53.326;6.472;2022-12-20T12:47:01;11.80;99.90
52016;DHT22;38032;53.326;6.472;2022-12-20T12:49:29;11.90;99.90
52016;DHT22;38032;53.326;6.472;2022-12-20T12:51:58;11.80;99.90
52016;DHT22;38032;53.326;6.472;2022-12-20T12:57:11;11.80;99.90
52016;DHT22;38032;53.326;6.472;2022-12-20T13:04:59;11.80;99.90
52016;DHT22;38032;53.326;6.472;2022-12-20T13:07:28;11.80;99.90
52016;DHT22;38032;53.326;6.472;2022-12-20T13:17:55;11.80;99.90
52016;DHT22;38032;53.326;6.472;2022-12-20T13:20:26;11.80;99.90
52016;DHT22;38032;53.326;6.472;2022-12-20T13:23:14;11.80;99.90
52016;DHT22;38032;53.326;6.472;2022-12-20T13:25:45;11.80;99.90
52016;DHT22;38032;53.326;6.472;2022-12-20T13:30:42;11.80;99.90
52016;DHT22;38032;53.326;6.472;2022-12-20T13:33:19;11.80;99.90
52016;DHT22;38032;53.326;6.472;2022-12-20T13:35:57;11.80;99.90
52016;DHT22;38032;53.326;6.472;2022-12-20T13:43:43;11.80;99.90
52016;DHT22;38032;53.326;6.472;2022-12-20T13:51:04;11.90;99.90
52016;DHT22;38032;53.326;6.472;2022-12-20T13:53:30;11.80;99.90
52016;DHT22;38032;53.326;6.472;2022-12-20T13:55:57;11.90;99.90
52016;DHT22;38032;53.326;6.472;2022-12-20T13:58:30;11.90;99.90
52016;DHT22;38032;53.326;6.472;2022-12-20T14:01:06;11.90;99.90
52016;DHT22;38032;53.326;6.472;2022-12-20T14:03:41;11.90;99.90
52016;DHT22;38032;53.326;6.472;2022-12-20T14:06:10;11.90;99.90
52016;DHT22;38032;53.326;6.472;2022-12-20T14:08:41;11.90;99.90
52016;DHT22;38032;53.326;6.472;2022-12-20T14:11:09;11.90;99.90
52016;DHT22;38032;53.326;6.472;2022-12-20T14:13:35;11.90;99.90
52016;DHT22;38032;53.326;6.472;2022-12-20T14:16:13;11.90;99.90
52016;DHT22;38032;53.326;6.472;2022-12-20T14:18:40;11.90;99.90
52016;DHT22;38032;53.326;6.472;2022-12-20T14:21:08;11.90;99.90
52016;DHT22;38032;53.326;6.472;2022-12-20T14:23:39;12.00;99.90
52016;DHT22;38032;53.326;6.472;2022-12-20T14:26:10;12.00;99.90
52016;DHT22;38032;53.326;6.472;2022-12-20T14:28:39;12.00;99.90
52016;DHT22;38032;53.326;6.472;2022-12-20T14:31:22;12.00;99.90
52016;DHT22;38032;53.326;6.472;2022-12-20T14:33:49;12.00;99.90
52016;DHT22;38032;53.326;6.472;2022-12-20T14:38:44;12.00;99.90
52016;DHT22;38032;53.326;6.472;2022-12-20T14:41:28;11.90;99.90
52016;DHT22;38032;53.326;6.472;2022-12-20T14:43:57;11.90;99.90
52016;DHT22;38032;53.326;6.472;2022-12-20T14:46:24;12.00;99.90
52016;DHT22;38032;53.326;6.472;2022-12-20T14:49:16;12.00;99.90
52016;DHT22;38032;53.326;6.472;2022-12-20T14:51:44;12.00;99.90
52016;DHT22;38032;53.326;6.472;2022-12-20T14:54:19;12.00;99.90
52016;DHT22;38032;53.326;6.472;2022-12-20T14:56:48;12.00;99.90
52016;DHT22;38032;53.326;6.472;2022-12-20T14:59:24;12.00;99.90
52016;DHT22;38032;53.326;6.472;2022-12-20T15:01:52;12.00;99.90
52016;DHT22;38032;53.326;6.472;2022-12-20T15:04:23;12.00;99.90
52016;DHT22;38032;53.326;6.472;2022-12-20T15:06:49;12.00;99.90
52016;DHT22;38032;53.326;6.472;2022-12-20T15:09:17;12.00;99.90
52016;DHT22;38032;53.326;6.472;2022-12-20T15:11:44;12.00;99.90
52016;DHT22;38032;53.326;6.472;2022-12-20T15:14:27;12.00;99.90
52016;DHT22;38032;53.326;6.472;2022-12-20T15:16:56;12.00;99.90
52016;DHT22;38032;53.326;6.472;2022-12-20T15:19:22;12.00;99.90
52016;DHT22;38032;53.326;6.472;2022-12-20T15:21:48;12.00;99.90
52016;DHT22;38032;53.326;6.472;2022-12-20T15:24:18;12.00;99.90
52016;DHT22;38032;53.326;6.472;2022-12-20T15:26:47;12.00;99.90
52016;DHT22;38032;53.326;6.472;2022-12-20T15:29:18;12.00;99.90
52016;DHT22;38032;53.326;6.472;2022-12-20T15:31:45;12.00;99.90
52016;DHT22;38032;53.326;6.472;2022-12-20T15:34:18;12.00;99.90
52016;DHT22;38032;53.326;6.472;2022-12-20T15:36:44;12.00;99.90
52016;DHT22;38032;53.326;6.472;2022-12-20T15:39:12;12.00;99.90
52016;DHT22;38032;53.326;6.472;2022-12-20T15:41:40;12.10;99.90
52016;DHT22;38032;53.326;6.472;2022-12-20T15:44:18;12.00;99.90
52016;DHT22;38032;53.326;6.472;2022-12-20T15:46:45;12.00;99.90
52016;DHT22;38032;53.326;6.472;2022-12-20T15:49:17;12.00;99.90
52016;DHT22;38032;53.326;6.472;2022-12-20T15:51:44;12.00;99.90
52016;DHT22;38032;53.326;6.472;2022-12-20T15:54:20;12.10;99.90
52016;DHT22;38032;53.326;6.472;2022-12-20T15:56:47;12.00;99.90
52016;DHT22;38032;53.326;6.472;2022-12-20T15:59:13;12.00;99.90
52016;DHT22;38032;53.326;6.472;2022-12-20T16:01:39;12.10;99.90
52016;DHT22;38032;53.326;6.472;2022-12-20T16:04:06;12.00;99.90
52016;DHT22;38032;53.326;6.472;2022-12-20T16:06:32;12.00;99.90
52016;DHT22;38032;53.326;6.472;2022-12-20T16:08:58;12.10;99.90
52016;DHT22;38032;53.326;6.472;2022-12-20T16:11:27;12.00;99.90
52016;DHT22;38032;53.326;6.472;2022-12-20T16:13:56;12.00;99.90
52016;DHT22;38032;53.326;6.472;2022-12-20T16:16:24;12.00;99.90
52016;DHT22;38032;53.326;6.472;2022-12-20T16:18:51;12.00;99.90
52016;DHT22;38032;53.326;6.472;2022-12-20T16:21:22;12.00;99.90
52016;DHT22;38032;53.326;6.472;2022-12-20T16:23:49;12.00;99.90
52016;DHT22;38032;53.326;6.472;2022-12-20T16:26:17;12.00;99.90
52016;DHT22;38032;53.326;6.472;2022-12-20T16:28:45;12.00;99.90
52016;DHT22;38032;53.326;6.472;2022-12-20T16:31:28;12.00;99.90
52016;DHT22;38032;53.326;6.472;2022-12-20T16:33:57;12.00;99.90
52016;DHT22;38032;53.326;6.472;2022-12-20T16:36:23;11.90;99.90
52016;DHT22;38032;53.326;6.472;2022-12-20T16:38:50;11.90;99.90
52016;DHT22;38032;53.326;6.472;2022-12-20T16:41:19;11.90;99.90
52016;DHT22;38032;53.326;6.472;2022-12-20T16:43:46;11.80;99.90
52016;DHT22;38032;53.326;6.472;2022-12-20T16:46:15;11.90;99.90
52016;DHT22;38032;53.326;6.472;2022-12-20T16:48:42;11.80;99.90
52016;DHT22;38032;53.326;6.472;2022-12-20T16:51:27;11.80;99.90
52016;DHT22;38032;53.326;6.472;2022-12-20T16:53:57;11.80;99.90
52016;DHT22;38032;53.326;6.472;2022-12-20T16:56:23;11.80;99.90
52016;DHT22;38032;53.326;6.472;2022-12-20T16:58:49;11.80;99.90
52016;DHT22;38032;53.326;6.472;2022-12-20T17:01:17;11.80;99.90
52016;DHT22;38032;53.326;6.472;2022-12-20T17:03:45;11.80;99.90
52016;DHT22;38032;53.326;6.472;2022-12-20T17:06:13;11.70;99.90
52016;DHT22;38032;53.326;6.472;2022-12-20T17:08:39;11.70;99.90
52016;DHT22;38032;53.326;6.472;2022-12-20T17:11:13;11.70;99.90
52016;DHT22;38032;53.326;6.472;2022-12-20T17:13:40;11.70;99.90
52016;DHT22;38032;53.326;6.472;2022-12-20T17:16:08;11.70;99.90